TimeEST,TemperatureF,Dew PointF,Humidity,Sea Level PressureIn,VisibilityMPH,Wind Direction,Wind SpeedMPH,Gust SpeedMPH,PrecipitationIn,Events,Conditions,WindDirDegrees,DateUTC
12:15 AM,23.5,19.6,85,30.34,10.0,Calm,Calm,-,N/A,,Clear,0,2012-12-14 05:15:00
12:35 AM,23.9,20.1,85,30.34,10.0,Calm,Calm,-,N/A,,Clear,0,2012-12-14 05:35:00
1:15 AM,22.8,19.2,86,30.32,10.0,Calm,Calm,-,N/A,,Clear,0,2012-12-14 06:15:00
1:35 AM,21.4,18.3,88,30.32,7.0,Calm,Calm,-,N/A,,Clear,0,2012-12-14 06:35:00
1:55 AM,21.0,17.6,87,30.32,10.0,Calm,Calm,-,N/A,,Clear,0,2012-12-14 06:55:00
2:15 AM,22.3,18.9,87,30.32,10.0,Calm,Calm,-,N/A,,Clear,0,2012-12-14 07:15:00
2:35 AM,21.9,18.3,86,30.32,7.0,Calm,Calm,-,N/A,,Clear,0,2012-12-14 07:35:00
2:55 AM,21.7,18.7,88,30.32,7.0,Calm,Calm,-,N/A,,Clear,0,2012-12-14 07:55:00
3:15 AM,20.8,17.4,87,30.31,7.0,Calm,Calm,-,N/A,,Clear,0,2012-12-14 08:15:00
3:35 AM,19.4,16.0,87,30.31,7.0,Calm,Calm,-,N/A,,Clear,0,2012-12-14 08:35:00
3:55 AM,19.0,15.3,85,30.31,10.0,Calm,Calm,-,N/A,,Clear,0,2012-12-14 08:55:00
4:15 AM,20.7,17.6,88,30.31,10.0,Calm,Calm,-,N/A,,Clear,0,2012-12-14 09:15:00
4:35 AM,20.1,15.8,83,30.31,10.0,Calm,Calm,-,N/A,,Clear,0,2012-12-14 09:35:00
4:55 AM,20.1,15.8,83,30.31,10.0,Calm,Calm,-,N/A,,Clear,0,2012-12-14 09:55:00
5:15 AM,20.3,16.7,86,30.31,10.0,Calm,Calm,-,N/A,,Clear,0,2012-12-14 10:15:00
5:35 AM,20.1,16.7,87,30.31,7.0,Calm,Calm,-,N/A,,Clear,0,2012-12-14 10:35:00
5:55 AM,18.7,15.4,87,30.31,7.0,Calm,Calm,-,N/A,,Clear,0,2012-12-14 10:55:00
6:15 AM,19.2,15.8,87,30.32,7.0,Calm,Calm,-,N/A,,Clear,0,2012-12-14 11:15:00
6:35 AM,20.5,16.0,83,30.32,10.0,Calm,Calm,-,N/A,,Clear,0,2012-12-14 11:35:00
6:55 AM,17.1,12.9,84,30.34,10.0,Calm,Calm,-,N/A,,Clear,0,2012-12-14 11:55:00
7:15 AM,18.7,15.3,87,30.34,7.0,Calm,Calm,-,N/A,,Clear,0,2012-12-14 12:15:00
7:35 AM,18.0,14.4,86,30.34,7.0,Calm,Calm,-,N/A,,Clear,0,2012-12-14 12:35:00
7:55 AM,19.0,15.6,87,30.33,7.0,Calm,Calm,-,N/A,,Clear,0,2012-12-14 12:55:00
8:15 AM,21.2,18.0,87,30.32,7.0,Calm,Calm,-,N/A,,Clear,0,2012-12-14 13:15:00
8:35 AM,24.6,20.3,84,30.32,7.0,Calm,Calm,-,N/A,,Clear,0,2012-12-14 13:35:00
8:55 AM,26.8,22.5,84,30.33,7.0,Calm,Calm,-,N/A,,Clear,0,2012-12-14 13:55:00
9:15 AM,29.8,24.4,80,30.32,10.0,Calm,Calm,-,N/A,,Clear,0,2012-12-14 14:15:00
9:35 AM,32.0,25.3,76,30.32,10.0,Calm,Calm,-,N/A,,Clear,0,2012-12-14 14:35:00
9:55 AM,33.1,27.5,80,30.33,10.0,Calm,Calm,-,N/A,,Clear,0,2012-12-14 14:55:00
10:15 AM,35.6,26.8,70,30.32,10.0,Calm,Calm,-,N/A,,Clear,0,2012-12-14 15:15:00
10:35 AM,39.0,25.9,59,30.32,10.0,Calm,Calm,-,N/A,,Clear,0,2012-12-14 15:35:00
10:55 AM,42.4,25.3,51,30.32,10.0,Calm,Calm,-,N/A,,Clear,0,2012-12-14 15:55:00
11:15 AM,45.3,24.8,45,30.31,10.0,SSE,3.5,-,N/A,,Clear,160,2012-12-14 16:15:00
11:35 AM,46.9,27.0,46,30.30,10.0,Calm,Calm,-,N/A,,Clear,0,2012-12-14 16:35:00
11:55 AM,49.5,28.6,45,30.29,10.0,SW,5.8,-,N/A,,Clear,220,2012-12-14 16:55:00
12:15 PM,51.8,28.8,41,30.28,10.0,South,3.5,-,N/A,,Clear,190,2012-12-14 17:15:00
12:35 PM,53.1,26.8,36,30.28,10.0,Calm,Calm,-,N/A,,Clear,0,2012-12-14 17:35:00
12:55 PM,55.4,24.3,30,30.26,10.0,Calm,Calm,-,N/A,,Clear,0,2012-12-14 17:55:00
1:15 PM,56.8,23.4,27,30.25,10.0,SSE,5.8,-,N/A,,Clear,160,2012-12-14 18:15:00
1:35 PM,56.5,19.9,24,30.25,10.0,Calm,Calm,-,N/A,,Clear,0,2012-12-14 18:35:00
1:55 PM,57.2,19.6,23,30.24,10.0,South,3.5,-,N/A,,Clear,170,2012-12-14 18:55:00
2:15 PM,57.6,19.6,23,30.24,10.0,Calm,Calm,-,N/A,,Clear,0,2012-12-14 19:15:00
2:35 PM,58.1,19.2,22,30.23,10.0,SSE,6.9,-,N/A,,Clear,150,2012-12-14 19:35:00
2:55 PM,58.3,19.0,22,30.23,10.0,South,5.8,-,N/A,,Clear,190,2012-12-14 19:55:00
3:15 PM,58.1,19.2,22,30.23,10.0,South,5.8,-,N/A,,Clear,180,2012-12-14 20:15:00
3:35 PM,57.6,19.4,23,30.22,10.0,South,5.8,-,N/A,,Clear,180,2012-12-14 20:35:00
3:55 PM,56.8,19.2,23,30.22,10.0,South,4.6,-,N/A,,Clear,190,2012-12-14 20:55:00
4:15 PM,55.8,17.6,22,30.22,10.0,South,5.8,-,N/A,,Clear,190,2012-12-14 21:15:00
4:35 PM,54.7,18.1,24,30.23,10.0,SSW,3.5,-,N/A,,Clear,200,2012-12-14 21:35:00
4:55 PM,53.2,18.3,25,30.22,10.0,SSE,3.5,-,N/A,,Clear,150,2012-12-14 21:55:00
5:15 PM,49.6,19.4,30,30.22,10.0,Calm,Calm,-,N/A,,Clear,0,2012-12-14 22:15:00
5:35 PM,44.2,22.5,42,30.23,10.0,Calm,Calm,-,N/A,,Clear,0,2012-12-14 22:35:00
5:55 PM,39.0,22.8,52,30.24,10.0,Calm,Calm,-,N/A,,Clear,0,2012-12-14 22:55:00
6:15 PM,41.5,22.8,47,30.24,10.0,Calm,Calm,-,N/A,,Clear,0,2012-12-14 23:15:00
6:35 PM,37.9,23.9,57,30.23,10.0,Calm,Calm,-,N/A,,Clear,0,2012-12-14 23:35:00
6:55 PM,33.3,23.4,67,30.23,10.0,Calm,Calm,-,N/A,,Clear,0,2012-12-14 23:55:00
7:15 PM,33.3,23.5,68,30.24,10.0,Calm,Calm,-,N/A,,Clear,0,2012-12-15 00:15:00
7:35 PM,34.5,23.9,65,30.24,10.0,Calm,Calm,-,N/A,,Clear,0,2012-12-15 00:35:00
7:55 PM,33.1,23.9,69,30.24,10.0,Calm,Calm,-,N/A,,Clear,0,2012-12-15 00:55:00
8:15 PM,31.8,23.5,71,30.25,10.0,Calm,Calm,-,N/A,,Clear,0,2012-12-15 01:15:00
8:35 PM,32.4,23.5,70,30.25,10.0,Calm,Calm,-,N/A,,Clear,0,2012-12-15 01:35:00
8:55 PM,32.2,23.2,69,30.25,10.0,Calm,Calm,-,N/A,,Clear,0,2012-12-15 01:55:00
9:15 PM,30.0,22.6,74,30.25,10.0,Calm,Calm,-,N/A,,Clear,0,2012-12-15 02:15:00
9:35 PM,30.9,23.4,74,30.26,10.0,Calm,Calm,-,N/A,,Clear,0,2012-12-15 02:35:00
9:55 PM,30.0,23.0,75,30.26,10.0,Calm,Calm,-,N/A,,Clear,0,2012-12-15 02:55:00
10:15 PM,31.5,23.7,73,30.26,10.0,Calm,Calm,-,N/A,,Clear,0,2012-12-15 03:15:00
10:35 PM,30.4,23.4,75,30.26,10.0,Calm,Calm,-,N/A,,Clear,0,2012-12-15 03:35:00
10:55 PM,31.8,23.9,73,30.26,10.0,Calm,Calm,-,N/A,,Clear,0,2012-12-15 03:55:00
11:15 PM,30.2,23.0,75,30.25,10.0,Calm,Calm,-,N/A,,Clear,0,2012-12-15 04:15:00
11:35 PM,30.0,23.4,76,30.25,10.0,Calm,Calm,-,N/A,,Clear,0,2012-12-15 04:35:00
11:55 PM,30.2,23.5,76,30.25,10.0,Calm,Calm,-,N/A,,Clear,0,2012-12-15 04:55:00